Peshawar Weather



Peshawar's Current Weather

Temprature 33o haze

haze

Rain: 0 %

Min Temprature33o
Max Temprature33o
Humidity40
Wind Speed5.14 m/h
Sun Rise05:18:00
Sun Set19:02:22
Current Time: 08-May-2021 14:51:00
Lat/Lon: 34.008, 71.5785




Peshawar's Geo Location



Peshawar's Weather Forecast

Time Overall Temp Min Temp Max Temp Humidity Wind Speed Rain
08-May-2021 (Sat)
17:00:00 scattered clouds 32.140 30.430 32.140 36 4.81 m/h 0 %
20:00:00 broken clouds 30.630 29.450 30.630 34 1.86 m/h 0 %
23:00:00 scattered clouds 27.520 27.520 27.520 37 2.62 m/h 0 %
09-May-2021 (Sun)
02:00:00 few clouds 26.000 26.000 26.000 43 1.06 m/h 0 %
05:00:00 few clouds 25.250 25.250 25.250 45 1.08 m/h 0 %
08:00:00 clear sky 28.090 28.090 28.090 38 1.43 m/h 0 %
11:00:00 clear sky 32.850 32.850 32.850 27 1.02 m/h 0 %
14:00:00 clear sky 36.100 36.100 36.100 20 0.25 m/h 0 %
17:00:00 clear sky 35.630 35.630 35.630 22 5.45 m/h 0 %
20:00:00 clear sky 32.190 32.190 32.190 27 1.82 m/h 0 %
23:00:00 clear sky 30.880 30.880 30.880 29 1.36 m/h 0 %
10-May-2021 (Mon)
02:00:00 light rain 28.110 28.110 28.110 35 1.55 m/h 12 %
05:00:00 light rain 25.150 25.150 25.150 46 1.61 m/h 37 %
08:00:00 broken clouds 27.500 27.500 27.500 40 1.75 m/h 0 %
11:00:00 broken clouds 32.450 32.450 32.450 28 0.99 m/h 0 %
14:00:00 scattered clouds 35.890 35.890 35.890 22 0.3 m/h 0 %
17:00:00 few clouds 36.960 36.960 36.960 20 3.21 m/h 0 %
20:00:00 light rain 32.040 32.040 32.040 29 2.73 m/h 13 %
23:00:00 light rain 30.330 30.330 30.330 31 2.75 m/h 17 %
11-May-2021 (Tue)
02:00:00 light rain 27.900 27.900 27.900 38 1.33 m/h 25 %
05:00:00 light rain 26.310 26.310 26.310 42 1.22 m/h 31 %
08:00:00 light rain 29.290 29.290 29.290 34 0.89 m/h 47 %
11:00:00 light rain 32.970 32.970 32.970 27 1.81 m/h 92 %
14:00:00 broken clouds 36.410 36.410 36.410 21 0.41 m/h 0 %
17:00:00 scattered clouds 33.720 33.720 33.720 28 9.04 m/h 0 %
20:00:00 light rain 27.570 27.570 27.570 40 8.15 m/h 287 %
23:00:00 moderate rain 23.890 23.890 23.890 57 2.04 m/h 406 %
12-May-2021 (Wed)
02:00:00 overcast clouds 23.500 23.500 23.500 61 1.17 m/h 0 %
05:00:00 broken clouds 23.410 23.410 23.410 60 0.8 m/h 0 %
08:00:00 scattered clouds 26.840 26.840 26.840 44 0.9 m/h 0 %
11:00:00 scattered clouds 31.600 31.600 31.600 25 2.8 m/h 0 %
14:00:00 few clouds 34.030 34.030 34.030 20 3.22 m/h 0 %
17:00:00 clear sky 34.170 34.170 34.170 20 2.2 m/h 0 %
20:00:00 light rain 28.150 28.150 28.150 34 1.43 m/h 23 %
23:00:00 light rain 25.180 25.180 25.180 56 0.88 m/h 68 %
13-May-2021 (Thu)
02:00:00 light rain 23.680 23.680 23.680 64 2.13 m/h 49 %
05:00:00 light rain 22.350 22.350 22.350 71 0.66 m/h 58 %
08:00:00 light rain 24.120 24.120 24.120 62 1.61 m/h 44 %
11:00:00 broken clouds 26.330 26.330 26.330 49 2.66 m/h 0 %
14:00:00 overcast clouds 29.780 29.780 29.780 33 4.59 m/h 0 %

Famous Cities (60)